sensor_id;sensor_type;location;lat;lon;timestamp;pressure;altitude;pressure_sealevel;temperature;humidity
59009;BME280;44794;42.652;23.318;2023-04-27T00:02:07;94257.91;;;7.73;58.34
59009;BME280;44794;42.652;23.318;2023-04-27T00:04:32;94252.91;;;7.70;58.36
59009;BME280;44794;42.652;23.318;2023-04-27T00:06:58;94255.69;;;7.67;58.32
59009;BME280;44794;42.652;23.318;2023-04-27T00:09:23;94260.97;;;7.65;58.06
59009;BME280;44794;42.652;23.318;2023-04-27T00:11:48;94261.09;;;7.64;58.04
59009;BME280;44794;42.652;23.318;2023-04-27T00:14:14;94263.88;;;7.61;58.16
59009;BME280;44794;42.652;23.318;2023-04-27T00:16:39;94266.56;;;7.59;58.51
59009;BME280;44794;42.652;23.318;2023-04-27T00:19:05;94266.13;;;7.53;58.43
59009;BME280;44794;42.652;23.318;2023-04-27T00:21:31;94271.31;;;7.53;58.22
59009;BME280;44794;42.652;23.318;2023-04-27T00:23:56;94277.72;;;7.47;58.25
59009;BME280;44794;42.652;23.318;2023-04-27T00:26:21;94278.56;;;7.48;58.27
59009;BME280;44794;42.652;23.318;2023-04-27T00:28:47;94271.94;;;7.44;58.31
59009;BME280;44794;42.652;23.318;2023-04-27T00:31:13;94271.63;;;7.36;59.03
59009;BME280;44794;42.652;23.318;2023-04-27T00:33:39;94264.06;;;7.33;58.88
59009;BME280;44794;42.652;23.318;2023-04-27T00:36:04;94255.31;;;7.23;58.98
59009;BME280;44794;42.652;23.318;2023-04-27T00:38:30;94270.03;;;7.09;59.24
59009;BME280;44794;42.652;23.318;2023-04-27T00:41:04;94264.69;;;7.12;59.69
59009;BME280;44794;42.652;23.318;2023-04-27T00:43:30;94263.22;;;6.95;59.55
59009;BME280;44794;42.652;23.318;2023-04-27T00:45:56;94268.66;;;6.91;60.04
59009;BME280;44794;42.652;23.318;2023-04-27T00:48:22;94268.84;;;6.88;60.47
59009;BME280;44794;42.652;23.318;2023-04-27T00:50:48;94271.09;;;6.80;60.25
59009;BME280;44794;42.652;23.318;2023-04-27T00:53:14;94270.78;;;6.72;60.25
59009;BME280;44794;42.652;23.318;2023-04-27T00:55:39;94262.59;;;6.66;60.18
59009;BME280;44794;42.652;23.318;2023-04-27T00:58:05;94267.88;;;6.64;61.10
59009;BME280;44794;42.652;23.318;2023-04-27T01:00:31;94266.66;;;6.56;61.16
59009;BME280;44794;42.652;23.318;2023-04-27T01:02:56;94277.50;;;6.48;61.71
59009;BME280;44794;42.652;23.318;2023-04-27T01:05:24;94275.66;;;6.50;61.81
59009;BME280;44794;42.652;23.318;2023-04-27T01:07:50;94282.75;;;6.47;62.05
59009;BME280;44794;42.652;23.318;2023-04-27T01:10:15;94279.09;;;6.37;62.09
59009;BME280;44794;42.652;23.318;2023-04-27T01:12:41;94281.56;;;6.38;62.39
59009;BME280;44794;42.652;23.318;2023-04-27T01:15:07;94286.28;;;6.32;62.91
59009;BME280;44794;42.652;23.318;2023-04-27T01:17:33;94292.66;;;6.26;63.05
59009;BME280;44794;42.652;23.318;2023-04-27T01:19:58;94281.91;;;6.20;63.01
59009;BME280;44794;42.652;23.318;2023-04-27T01:22:24;94283.09;;;6.14;63.55
59009;BME280;44794;42.652;23.318;2023-04-27T01:24:50;94290.00;;;6.14;63.51
59009;BME280;44794;42.652;23.318;2023-04-27T01:27:16;94290.38;;;6.08;63.04
59009;BME280;44794;42.652;23.318;2023-04-27T01:29:41;94290.38;;;6.08;63.48
59009;BME280;44794;42.652;23.318;2023-04-27T01:32:08;94289.09;;;6.01;64.31
59009;BME280;44794;42.652;23.318;2023-04-27T01:34:34;94293.72;;;5.96;63.84
59009;BME280;44794;42.652;23.318;2023-04-27T01:36:59;94281.28;;;6.02;63.45
59009;BME280;44794;42.652;23.318;2023-04-27T01:39:25;94292.41;;;6.03;63.59
59009;BME280;44794;42.652;23.318;2023-04-27T01:41:50;94294.81;;;6.06;63.07
59009;BME280;44794;42.652;23.318;2023-04-27T01:44:16;94299.03;;;5.93;63.13
59009;BME280;44794;42.652;23.318;2023-04-27T01:46:41;94295.38;;;5.97;62.82
59009;BME280;44794;42.652;23.318;2023-04-27T01:49:07;94290.97;;;5.99;63.00
59009;BME280;44794;42.652;23.318;2023-04-27T01:51:32;94293.72;;;5.96;62.87
59009;BME280;44794;42.652;23.318;2023-04-27T01:53:58;94289.56;;;5.94;62.61
59009;BME280;44794;42.652;23.318;2023-04-27T01:56:23;94295.38;;;5.97;62.87
59009;BME280;44794;42.652;23.318;2023-04-27T01:58:49;94298.75;;;5.97;62.77
59009;BME280;44794;42.652;23.318;2023-04-27T02:01:15;94290.38;;;5.94;62.57
59009;BME280;44794;42.652;23.318;2023-04-27T02:03:41;94290.84;;;6.00;62.53
59009;BME280;44794;42.652;23.318;2023-04-27T02:06:06;94292.69;;;5.98;62.28
59009;BME280;44794;42.652;23.318;2023-04-27T02:08:33;94293.44;;;6.00;62.29
59009;BME280;44794;42.652;23.318;2023-04-27T02:10:58;94297.19;;;5.95;62.08
59009;BME280;44794;42.652;23.318;2023-04-27T02:13:24;94295.47;;;5.96;62.19
59009;BME280;44794;42.652;23.318;2023-04-27T02:15:49;94292.69;;;5.98;62.41
59009;BME280;44794;42.652;23.318;2023-04-27T02:18:14;94292.97;;;5.94;62.04
59009;BME280;44794;42.652;23.318;2023-04-27T02:20:40;94298.13;;;5.94;62.39
59009;BME280;44794;42.652;23.318;2023-04-27T02:23:05;94300.97;;;5.90;62.76
59009;BME280;44794;42.652;23.318;2023-04-27T02:25:31;94301.72;;;5.92;62.04
59009;BME280;44794;42.652;23.318;2023-04-27T02:27:56;94302.56;;;5.92;62.18
59009;BME280;44794;42.652;23.318;2023-04-27T02:30:22;94302.34;;;5.95;62.13
59009;BME280;44794;42.652;23.318;2023-04-27T02:32:47;94302.19;;;5.98;61.81
59009;BME280;44794;42.652;23.318;2023-04-27T02:35:12;94301.06;;;6.02;61.63
59009;BME280;44794;42.652;23.318;2023-04-27T02:37:38;94301.16;;;6.00;61.85
59009;BME280;44794;42.652;23.318;2023-04-27T02:40:04;94300.25;;;6.01;61.62
59009;BME280;44794;42.652;23.318;2023-04-27T02:42:32;94301.81;;;6.04;61.31
59009;BME280;44794;42.652;23.318;2023-04-27T02:44:57;94309.91;;;6.12;60.97
59009;BME280;44794;42.652;23.318;2023-04-27T02:47:23;94304.00;;;6.10;61.39
59009;BME280;44794;42.652;23.318;2023-04-27T02:49:48;94307.50;;;6.09;61.35
59009;BME280;44794;42.652;23.318;2023-04-27T02:52:14;94309.53;;;6.04;60.86
59009;BME280;44794;42.652;23.318;2023-04-27T02:54:40;94314.31;;;6.10;60.80
59009;BME280;44794;42.652;23.318;2023-04-27T02:57:05;94310.91;;;6.09;60.26
59009;BME280;44794;42.652;23.318;2023-04-27T02:59:31;94300.22;;;6.15;60.27
59009;BME280;44794;42.652;23.318;2023-04-27T03:01:57;94313.13;;;6.15;60.43
59009;BME280;44794;42.652;23.318;2023-04-27T03:04:22;94313.56;;;6.08;60.57
59009;BME280;44794;42.652;23.318;2023-04-27T03:06:48;94314.56;;;6.19;60.70
59009;BME280;44794;42.652;23.318;2023-04-27T03:09:13;94315.22;;;6.09;60.41
59009;BME280;44794;42.652;23.318;2023-04-27T03:11:38;94317.63;;;6.12;60.12
59009;BME280;44794;42.652;23.318;2023-04-27T03:14:04;94320.28;;;6.10;59.80
59009;BME280;44794;42.652;23.318;2023-04-27T03:16:31;94323.50;;;6.14;59.85
59009;BME280;44794;42.652;23.318;2023-04-27T03:18:57;94324.06;;;6.19;60.05
59009;BME280;44794;42.652;23.318;2023-04-27T03:21:22;94324.78;;;6.21;60.15
59009;BME280;44794;42.652;23.318;2023-04-27T03:23:48;94331.06;;;6.17;59.27
59009;BME280;44794;42.652;23.318;2023-04-27T03:26:13;94330.69;;;6.09;60.10
59009;BME280;44794;42.652;23.318;2023-04-27T03:28:39;94336.06;;;6.06;60.13
59009;BME280;44794;42.652;23.318;2023-04-27T03:31:06;94338.44;;;6.09;60.01
59009;BME280;44794;42.652;23.318;2023-04-27T03:33:32;94330.69;;;6.09;59.96
59009;BME280;44794;42.652;23.318;2023-04-27T03:35:57;94336.97;;;6.05;60.04
59009;BME280;44794;42.652;23.318;2023-04-27T03:38:24;94341.75;;;6.11;60.04
59009;BME280;44794;42.652;23.318;2023-04-27T03:40:50;94348.19;;;6.04;59.90
59009;BME280;44794;42.652;23.318;2023-04-27T03:43:16;94348.38;;;6.15;59.73
59009;BME280;44794;42.652;23.318;2023-04-27T03:45:42;94347.06;;;6.22;59.59
59009;BME280;44794;42.652;23.318;2023-04-27T03:48:07;94355.81;;;6.19;59.08
59009;BME280;44794;42.652;23.318;2023-04-27T03:50:32;94355.53;;;6.24;59.34
59009;BME280;44794;42.652;23.318;2023-04-27T03:52:58;94348.91;;;6.34;59.07
59009;BME280;44794;42.652;23.318;2023-04-27T03:55:23;94359.31;;;6.32;58.43
59009;BME280;44794;42.652;23.318;2023-04-27T03:57:50;94361.81;;;6.34;58.19
59009;BME280;44794;42.652;23.318;2023-04-27T04:00:16;94356.97;;;6.42;57.85
59009;BME280;44794;42.652;23.318;2023-04-27T04:02:42;94366.00;;;6.49;58.01
59009;BME280;44794;42.652;23.318;2023-04-27T04:05:08;94373.31;;;6.42;57.16
59009;BME280;44794;42.652;23.318;2023-04-27T04:07:34;94378.81;;;6.50;56.96
59009;BME280;44794;42.652;23.318;2023-04-27T04:09:59;94377.97;;;6.50;57.18
59009;BME280;44794;42.652;23.318;2023-04-27T04:12:25;94383.78;;;6.53;56.82
59009;BME280;44794;42.652;23.318;2023-04-27T04:14:50;94384.88;;;6.63;56.53
59009;BME280;44794;42.652;23.318;2023-04-27T04:17:16;94388.13;;;6.53;56.28
59009;BME280;44794;42.652;23.318;2023-04-27T04:19:41;94386.28;;;6.55;56.12
59009;BME280;44794;42.652;23.318;2023-04-27T04:22:07;94388.47;;;6.61;56.30
59009;BME280;44794;42.652;23.318;2023-04-27T04:24:32;94395.63;;;6.69;55.92
59009;BME280;44794;42.652;23.318;2023-04-27T04:26:58;94391.78;;;6.63;56.12
59009;BME280;44794;42.652;23.318;2023-04-27T04:29:23;94401.00;;;6.67;55.64
59009;BME280;44794;42.652;23.318;2023-04-27T04:31:50;94402.28;;;6.73;55.94
59009;BME280;44794;42.652;23.318;2023-04-27T04:34:15;94404.75;;;6.75;55.30
59009;BME280;44794;42.652;23.318;2023-04-27T04:36:41;94411.53;;;6.90;55.66
59009;BME280;44794;42.652;23.318;2023-04-27T04:39:06;94406.44;;;7.02;54.94
59009;BME280;44794;42.652;23.318;2023-04-27T04:41:32;94405.88;;;6.97;54.97
59009;BME280;44794;42.652;23.318;2023-04-27T04:43:57;94418.44;;;7.03;54.80
59009;BME280;44794;42.652;23.318;2023-04-27T04:46:24;94429.03;;;6.99;53.84
59009;BME280;44794;42.652;23.318;2023-04-27T04:48:50;94429.25;;;7.22;54.57
59009;BME280;44794;42.652;23.318;2023-04-27T04:51:16;94423.69;;;7.28;54.01
59009;BME280;44794;42.652;23.318;2023-04-27T04:53:41;94429.66;;;7.55;54.09
59009;BME280;44794;42.652;23.318;2023-04-27T04:56:08;94436.84;;;7.76;52.46
59009;BME280;44794;42.652;23.318;2023-04-27T04:58:34;94436.34;;;7.84;52.41
59009;BME280;44794;42.652;23.318;2023-04-27T05:00:59;94446.06;;;7.93;52.27
59009;BME280;44794;42.652;23.318;2023-04-27T05:03:25;94441.72;;;7.93;51.61
59009;BME280;44794;42.652;23.318;2023-04-27T05:05:51;94440.50;;;7.99;51.11
59009;BME280;44794;42.652;23.318;2023-04-27T05:08:16;94445.25;;;8.05;51.33
59009;BME280;44794;42.652;23.318;2023-04-27T05:10:48;94450.28;;;8.45;51.08
59009;BME280;44794;42.652;23.318;2023-04-27T05:13:14;94453.59;;;8.34;50.74
59009;BME280;44794;42.652;23.318;2023-04-27T05:15:39;94457.00;;;8.47;50.71
59009;BME280;44794;42.652;23.318;2023-04-27T05:18:05;94451.28;;;8.18;50.96
59009;BME280;44794;42.652;23.318;2023-04-27T05:20:37;94457.53;;;8.27;51.00
59009;BME280;44794;42.652;23.318;2023-04-27T05:23:03;94454.84;;;8.41;51.49
59009;BME280;44794;42.652;23.318;2023-04-27T05:25:32;94464.13;;;8.31;50.65
59009;BME280;44794;42.652;23.318;2023-04-27T05:27:58;94464.69;;;7.98;50.76
59009;BME280;44794;42.652;23.318;2023-04-27T05:30:24;94464.72;;;8.10;51.38
59009;BME280;44794;42.652;23.318;2023-04-27T05:32:50;94465.94;;;8.05;52.49
59009;BME280;44794;42.652;23.318;2023-04-27T05:35:15;94466.97;;;8.02;52.20
59009;BME280;44794;42.652;23.318;2023-04-27T05:37:41;94463.63;;;7.75;52.27
59009;BME280;44794;42.652;23.318;2023-04-27T05:40:06;94465.41;;;7.61;52.90
59009;BME280;44794;42.652;23.318;2023-04-27T05:42:34;94470.41;;;7.64;52.92
59009;BME280;44794;42.652;23.318;2023-04-27T05:45:00;94465.63;;;7.58;53.45
59009;BME280;44794;42.652;23.318;2023-04-27T05:47:26;94471.72;;;7.57;53.38
59009;BME280;44794;42.652;23.318;2023-04-27T05:49:51;94468.50;;;7.53;53.56
59009;BME280;44794;42.652;23.318;2023-04-27T05:52:18;94473.19;;;7.61;53.48
59009;BME280;44794;42.652;23.318;2023-04-27T05:54:47;94472.47;;;7.59;54.10
59009;BME280;44794;42.652;23.318;2023-04-27T05:57:13;94477.22;;;7.65;54.12
59009;BME280;44794;42.652;23.318;2023-04-27T05:59:39;94470.94;;;7.69;53.64
59009;BME280;44794;42.652;23.318;2023-04-27T06:02:05;94470.53;;;7.75;53.77
59009;BME280;44794;42.652;23.318;2023-04-27T06:04:31;94471.78;;;7.82;53.54
59009;BME280;44794;42.652;23.318;2023-04-27T06:07:01;94468.41;;;7.94;53.47
59009;BME280;44794;42.652;23.318;2023-04-27T06:09:29;94472.38;;;8.12;53.50
59009;BME280;44794;42.652;23.318;2023-04-27T06:11:55;94477.22;;;8.04;53.05
59009;BME280;44794;42.652;23.318;2023-04-27T06:14:23;94465.91;;;8.31;53.37
59009;BME280;44794;42.652;23.318;2023-04-27T06:16:48;94477.59;;;8.61;52.96
59009;BME280;44794;42.652;23.318;2023-04-27T06:19:13;94474.16;;;8.98;51.97
59009;BME280;44794;42.652;23.318;2023-04-27T06:21:39;94481.66;;;9.13;50.75
59009;BME280;44794;42.652;23.318;2023-04-27T06:24:05;94477.72;;;9.08;51.16
59009;BME280;44794;42.652;23.318;2023-04-27T06:26:30;94472.09;;;9.26;51.10
59009;BME280;44794;42.652;23.318;2023-04-27T06:28:56;94467.91;;;9.36;50.07
59009;BME280;44794;42.652;23.318;2023-04-27T06:31:22;94477.84;;;9.42;50.39
59009;BME280;44794;42.652;23.318;2023-04-27T06:33:47;94469.16;;;9.43;50.11
59009;BME280;44794;42.652;23.318;2023-04-27T06:36:12;94469.03;;;9.45;50.01
59009;BME280;44794;42.652;23.318;2023-04-27T06:38:38;94472.28;;;9.23;50.14
59009;BME280;44794;42.652;23.318;2023-04-27T06:41:04;94470.69;;;9.10;49.50
59009;BME280;44794;42.652;23.318;2023-04-27T06:43:30;94469.66;;;9.00;50.41
59009;BME280;44794;42.652;23.318;2023-04-27T06:45:55;94473.78;;;9.15;50.51
59009;BME280;44794;42.652;23.318;2023-04-27T06:48:21;94465.09;;;9.03;49.87
59009;BME280;44794;42.652;23.318;2023-04-27T06:50:46;94463.41;;;9.15;50.28
59009;BME280;44794;42.652;23.318;2023-04-27T06:53:12;94474.84;;;9.59;49.47
59009;BME280;44794;42.652;23.318;2023-04-27T06:55:38;94477.72;;;9.90;48.43
59009;BME280;44794;42.652;23.318;2023-04-27T06:58:03;94475.03;;;10.15;48.04
59009;BME280;44794;42.652;23.318;2023-04-27T07:00:30;94475.03;;;10.15;47.45
59009;BME280;44794;42.652;23.318;2023-04-27T07:02:56;94474.97;;;9.81;47.90
59009;BME280;44794;42.652;23.318;2023-04-27T07:05:21;94470.50;;;9.83;47.80
59009;BME280;44794;42.652;23.318;2023-04-27T07:07:47;94472.16;;;10.07;47.96
59009;BME280;44794;42.652;23.318;2023-04-27T07:10:12;94468.31;;;10.13;47.46
59009;BME280;44794;42.652;23.318;2023-04-27T07:12:38;94475.50;;;10.20;47.16
59009;BME280;44794;42.652;23.318;2023-04-27T07:15:05;94466.84;;;10.54;46.28
59009;BME280;44794;42.652;23.318;2023-04-27T07:17:31;94467.25;;;10.82;45.93
59009;BME280;44794;42.652;23.318;2023-04-27T07:19:56;94477.00;;;10.68;45.46
59009;BME280;44794;42.652;23.318;2023-04-27T07:22:22;94474.31;;;10.69;45.25
59009;BME280;44794;42.652;23.318;2023-04-27T07:24:47;94466.19;;;11.07;45.15
59009;BME280;44794;42.652;23.318;2023-04-27T07:27:13;94464.03;;;11.12;44.66
59009;BME280;44794;42.652;23.318;2023-04-27T07:29:39;94464.94;;;11.43;43.74
59009;BME280;44794;42.652;23.318;2023-04-27T07:32:06;94462.34;;;11.54;44.08
59009;BME280;44794;42.652;23.318;2023-04-27T07:34:32;94456.94;;;11.24;43.82
59009;BME280;44794;42.652;23.318;2023-04-27T07:36:57;94450.31;;;11.10;44.66
59009;BME280;44794;42.652;23.318;2023-04-27T07:39:22;94462.13;;;11.24;44.25
59009;BME280;44794;42.652;23.318;2023-04-27T07:41:48;94458.72;;;11.02;44.75
59009;BME280;44794;42.652;23.318;2023-04-27T07:44:16;94458.59;;;11.04;45.25
59009;BME280;44794;42.652;23.318;2023-04-27T07:46:42;94457.91;;;10.58;45.38
59009;BME280;44794;42.652;23.318;2023-04-27T07:49:07;94458.44;;;10.40;45.18
59009;BME280;44794;42.652;23.318;2023-04-27T07:51:33;94451.94;;;10.23;46.07
59009;BME280;44794;42.652;23.318;2023-04-27T07:53:59;94454.09;;;10.51;46.33
59009;BME280;44794;42.652;23.318;2023-04-27T07:56:24;94458.25;;;10.75;44.84
59009;BME280;44794;42.652;23.318;2023-04-27T07:58:50;94449.50;;;11.09;44.24
59009;BME280;44794;42.652;23.318;2023-04-27T08:01:15;94459.44;;;11.15;44.55
59009;BME280;44794;42.652;23.318;2023-04-27T08:03:41;94452.75;;;11.44;43.93
59009;BME280;44794;42.652;23.318;2023-04-27T08:06:07;94450.22;;;11.75;43.96
59009;BME280;44794;42.652;23.318;2023-04-27T08:08:32;94462.31;;;11.97;42.68
59009;BME280;44794;42.652;23.318;2023-04-27T08:10:57;94464.03;;;11.87;41.95
59009;BME280;44794;42.652;23.318;2023-04-27T08:13:23;94469.31;;;11.96;42.46
59009;BME280;44794;42.652;23.318;2023-04-27T08:15:49;94464.13;;;11.43;42.80
59009;BME280;44794;42.652;23.318;2023-04-27T08:18:15;94463.09;;;11.13;43.31
59009;BME280;44794;42.652;23.318;2023-04-27T08:20:42;94458.94;;;11.32;42.26
59009;BME280;44794;42.652;23.318;2023-04-27T08:23:07;94463.09;;;11.77;42.68
59009;BME280;44794;42.652;23.318;2023-04-27T08:25:35;94461.28;;;11.88;41.64
59009;BME280;44794;42.652;23.318;2023-04-27T08:28:00;94458.63;;;11.99;42.08
59009;BME280;44794;42.652;23.318;2023-04-27T08:30:26;94453.34;;;12.21;42.83
59009;BME280;44794;42.652;23.318;2023-04-27T08:32:51;94448.06;;;12.52;41.54
59009;BME280;44794;42.652;23.318;2023-04-27T08:35:18;94452.38;;;12.83;42.48
59009;BME280;44794;42.652;23.318;2023-04-27T08:37:44;94458.19;;;11.94;41.93
59009;BME280;44794;42.652;23.318;2023-04-27T08:40:10;94458.34;;;11.28;43.25
59009;BME280;44794;42.652;23.318;2023-04-27T08:42:36;94455.16;;;11.78;42.84
59009;BME280;44794;42.652;23.318;2023-04-27T08:45:01;94451.81;;;12.18;42.78
59009;BME280;44794;42.652;23.318;2023-04-27T08:47:27;94461.41;;;12.38;41.63
59009;BME280;44794;42.652;23.318;2023-04-27T08:49:52;94466.00;;;12.46;41.52
59009;BME280;44794;42.652;23.318;2023-04-27T08:52:18;94462.59;;;12.14;41.12
59009;BME280;44794;42.652;23.318;2023-04-27T08:54:43;94453.22;;;12.43;41.17
59009;BME280;44794;42.652;23.318;2023-04-27T08:57:13;94463.56;;;12.94;40.90
59009;BME280;44794;42.652;23.318;2023-04-27T08:59:39;94464.88;;;12.69;40.45
59009;BME280;44794;42.652;23.318;2023-04-27T09:02:05;94457.00;;;12.79;39.98
59009;BME280;44794;42.652;23.318;2023-04-27T09:04:38;94462.34;;;12.98;40.59
59009;BME280;44794;42.652;23.318;2023-04-27T09:07:15;94453.25;;;12.93;39.79
59009;BME280;44794;42.652;23.318;2023-04-27T09:09:41;94454.38;;;13.00;40.65
59009;BME280;44794;42.652;23.318;2023-04-27T09:12:17;94464.38;;;13.25;39.60
59009;BME280;44794;42.652;23.318;2023-04-27T09:14:55;94452.31;;;12.73;39.59
59009;BME280;44794;42.652;23.318;2023-04-27T09:17:25;94464.25;;;12.56;39.92
59009;BME280;44794;42.652;23.318;2023-04-27T09:20:01;94452.13;;;12.66;40.20
59009;BME280;44794;42.652;23.318;2023-04-27T09:22:29;94451.09;;;12.98;39.93
59009;BME280;44794;42.652;23.318;2023-04-27T09:24:55;94447.88;;;13.24;39.49
59009;BME280;44794;42.652;23.318;2023-04-27T09:27:21;94451.00;;;13.57;38.26
59009;BME280;44794;42.652;23.318;2023-04-27T09:29:47;94444.66;;;13.02;38.96
59009;BME280;44794;42.652;23.318;2023-04-27T09:32:16;94441.19;;;13.31;39.25
59009;BME280;44794;42.652;23.318;2023-04-27T09:34:44;94445.56;;;13.89;38.83
59009;BME280;44794;42.652;23.318;2023-04-27T09:37:10;94439.25;;;13.82;37.55
59009;BME280;44794;42.652;23.318;2023-04-27T09:39:37;94427.19;;;14.19;39.01
59009;BME280;44794;42.652;23.318;2023-04-27T09:42:04;94432.59;;;13.59;36.07
59009;BME280;44794;42.652;23.318;2023-04-27T09:44:30;94425.69;;;13.00;38.01
59009;BME280;44794;42.652;23.318;2023-04-27T09:46:59;94421.34;;;13.00;38.24
59009;BME280;44794;42.652;23.318;2023-04-27T09:49:26;94424.28;;;12.66;38.86
59009;BME280;44794;42.652;23.318;2023-04-27T09:51:54;94420.34;;;12.92;38.68
59009;BME280;44794;42.652;23.318;2023-04-27T09:54:24;94418.56;;;12.72;38.90
59009;BME280;44794;42.652;23.318;2023-04-27T10:02:59;94417.25;;;13.75;37.28
59009;BME280;44794;42.652;23.318;2023-04-27T10:05:36;94412.19;;;13.15;36.72
59009;BME280;44794;42.652;23.318;2023-04-27T10:08:04;94417.50;;;13.53;37.00
59009;BME280;44794;42.652;23.318;2023-04-27T10:10:41;94416.44;;;13.93;36.56
59009;BME280;44794;42.652;23.318;2023-04-27T10:13:06;94418.31;;;13.44;37.17
59009;BME280;44794;42.652;23.318;2023-04-27T10:15:38;94416.16;;;13.68;38.36
59009;BME280;44794;42.652;23.318;2023-04-27T10:18:04;94418.34;;;13.91;36.37
59009;BME280;44794;42.652;23.318;2023-04-27T10:20:36;94415.34;;;13.96;36.90
59009;BME280;44794;42.652;23.318;2023-04-27T10:23:02;94413.03;;;14.12;35.28
59009;BME280;44794;42.652;23.318;2023-04-27T10:25:29;94414.13;;;14.00;36.82
59009;BME280;44794;42.652;23.318;2023-04-27T10:28:02;94417.53;;;14.10;36.68
59009;BME280;44794;42.652;23.318;2023-04-27T10:30:32;94414.22;;;13.70;36.09
59009;BME280;44794;42.652;23.318;2023-04-27T10:32:59;94419.72;;;13.67;36.06
59009;BME280;44794;42.652;23.318;2023-04-27T10:35:38;94409.94;;;13.50;37.11
59009;BME280;44794;42.652;23.318;2023-04-27T10:40:32;94412.44;;;14.36;35.91
59009;BME280;44794;42.652;23.318;2023-04-27T10:43:16;94415.34;;;14.43;35.53
59009;BME280;44794;42.652;23.318;2023-04-27T10:45:42;94412.03;;;13.94;34.54
59009;BME280;44794;42.652;23.318;2023-04-27T10:48:11;94408.44;;;14.04;35.96
59009;BME280;44794;42.652;23.318;2023-04-27T10:50:38;94399.94;;;14.40;35.71
59009;BME280;44794;42.652;23.318;2023-04-27T10:53:05;94407.66;;;14.04;34.69
59009;BME280;44794;42.652;23.318;2023-04-27T10:55:32;94405.44;;;13.90;35.52
59009;BME280;44794;42.652;23.318;2023-04-27T10:57:58;94401.72;;;14.02;35.41
59009;BME280;44794;42.652;23.318;2023-04-27T11:02:52;94396.94;;;15.26;34.63
59009;BME280;44794;42.652;23.318;2023-04-27T11:05:26;94389.50;;;15.66;33.71
59009;BME280;44794;42.652;23.318;2023-04-27T11:08:08;94390.81;;;15.79;32.59
59009;BME280;44794;42.652;23.318;2023-04-27T11:10:34;94399.97;;;14.12;33.92
59009;BME280;44794;42.652;23.318;2023-04-27T11:13:06;94404.47;;;14.00;34.82
59009;BME280;44794;42.652;23.318;2023-04-27T11:15:50;94394.34;;;14.16;35.71
59009;BME280;44794;42.652;23.318;2023-04-27T11:18:18;94403.75;;;14.55;35.83
59009;BME280;44794;42.652;23.318;2023-04-27T11:20:46;94411.97;;;14.79;33.96
59009;BME280;44794;42.652;23.318;2023-04-27T11:23:25;94407.09;;;14.47;34.29
59009;BME280;44794;42.652;23.318;2023-04-27T11:25:51;94409.00;;;14.45;34.61
59009;BME280;44794;42.652;23.318;2023-04-27T11:28:18;94409.47;;;14.22;34.91
59009;BME280;44794;42.652;23.318;2023-04-27T11:30:44;94404.91;;;13.67;36.14
59009;BME280;44794;42.652;23.318;2023-04-27T11:33:09;94409.28;;;13.67;36.21
59009;BME280;44794;42.652;23.318;2023-04-27T11:35:35;94388.06;;;13.32;36.09
59009;BME280;44794;42.652;23.318;2023-04-27T11:38:00;94402.03;;;13.12;36.79
59009;BME280;44794;42.652;23.318;2023-04-27T11:40:26;94413.69;;;13.66;36.68
59009;BME280;44794;42.652;23.318;2023-04-27T11:42:59;94413.56;;;13.96;36.34
59009;BME280;44794;42.652;23.318;2023-04-27T11:45:28;94413.16;;;14.29;35.84
59009;BME280;44794;42.652;23.318;2023-04-27T11:47:57;94423.97;;;14.53;34.81
59009;BME280;44794;42.652;23.318;2023-04-27T11:50:23;94412.22;;;14.21;35.00
59009;BME280;44794;42.652;23.318;2023-04-27T11:52:52;94412.00;;;14.50;34.28
59009;BME280;44794;42.652;23.318;2023-04-27T11:55:20;94413.41;;;14.35;34.46
59009;BME280;44794;42.652;23.318;2023-04-27T11:57:46;94417.53;;;14.10;35.12
59009;BME280;44794;42.652;23.318;2023-04-27T12:00:12;94416.44;;;14.03;35.93
59009;BME280;44794;42.652;23.318;2023-04-27T12:02:39;94426.72;;;13.76;34.42
59009;BME280;44794;42.652;23.318;2023-04-27T12:05:05;94416.91;;;13.40;35.50
59009;BME280;44794;42.652;23.318;2023-04-27T12:07:32;94418.25;;;13.25;35.98
59009;BME280;44794;42.652;23.318;2023-04-27T12:09:57;94418.53;;;13.22;36.45
59009;BME280;44794;42.652;23.318;2023-04-27T12:12:23;94413.47;;;13.30;36.85
59009;BME280;44794;42.652;23.318;2023-04-27T12:14:49;94419.81;;;13.37;37.25
59009;BME280;44794;42.652;23.318;2023-04-27T12:17:14;94421.97;;;13.32;36.99
59009;BME280;44794;42.652;23.318;2023-04-27T12:19:40;94419.94;;;13.45;36.20
59009;BME280;44794;42.652;23.318;2023-04-27T12:22:05;94419.28;;;13.04;36.22
59009;BME280;44794;42.652;23.318;2023-04-27T12:24:31;94423.22;;;13.28;35.69
59009;BME280;44794;42.652;23.318;2023-04-27T12:26:57;94427.94;;;13.62;35.99
59009;BME280;44794;42.652;23.318;2023-04-27T12:29:22;94417.84;;;13.30;36.41
59009;BME280;44794;42.652;23.318;2023-04-27T12:31:49;94423.41;;;13.06;37.35
59009;BME280;44794;42.652;23.318;2023-04-27T12:34:14;94414.59;;;13.37;36.59
59009;BME280;44794;42.652;23.318;2023-04-27T12:36:40;94425.78;;;13.77;36.15
59009;BME280;44794;42.652;23.318;2023-04-27T12:39:19;94421.97;;;14.19;36.30
59009;BME280;44794;42.652;23.318;2023-04-27T12:41:48;94431.28;;;13.93;35.77
59009;BME280;44794;42.652;23.318;2023-04-27T12:44:15;94423.28;;;13.66;36.79
59009;BME280;44794;42.652;23.318;2023-04-27T12:46:42;94430.81;;;13.50;36.74
59009;BME280;44794;42.652;23.318;2023-04-27T12:49:08;94436.56;;;12.95;37.67
59009;BME280;44794;42.652;23.318;2023-04-27T12:51:35;94430.06;;;13.20;37.38
59009;BME280;44794;42.652;23.318;2023-04-27T12:54:04;94443.38;;;13.26;37.23
59009;BME280;44794;42.652;23.318;2023-04-27T12:56:30;94428.44;;;13.38;37.25
59009;BME280;44794;42.652;23.318;2023-04-27T12:58:56;94439.97;;;13.35;36.90
59009;BME280;44794;42.652;23.318;2023-04-27T13:01:24;94431.44;;;13.33;37.03
59009;BME280;44794;42.652;23.318;2023-04-27T13:03:51;94425.84;;;13.47;36.39